createdAt,value
2024-02-02T05:06:39.126Z,2.90
2024-02-02T05:09:41.685Z,1.27
2024-02-02T05:12:45.803Z,3.47
2024-02-02T05:15:48.403Z,2.38
2024-02-02T05:18:52.397Z,2.22
2024-02-02T05:21:55.158Z,4.57
2024-02-02T05:24:57.736Z,1.60
2024-02-02T05:28:00.324Z,2.47
2024-02-02T05:31:03.004Z,2.33
2024-02-02T05:34:05.936Z,2.67
2024-02-02T05:37:08.586Z,5.77
2024-02-02T05:40:11.283Z,3.83
2024-02-02T05:43:13.885Z,1.63
2024-02-02T05:46:16.430Z,2.45
2024-02-02T05:49:19.217Z,5.68
2024-02-02T05:52:21.883Z,4.07
2024-02-02T05:55:24.457Z,4.20
2024-02-02T05:58:27.038Z,6.47
2024-02-02T06:01:29.657Z,4.30
2024-02-02T06:04:32.313Z,3.22
2024-02-02T06:07:34.834Z,1.97
2024-02-02T06:10:37.411Z,1.70
2024-02-02T06:13:41.646Z,5.72
2024-02-02T06:16:44.241Z,4.47
2024-02-02T06:19:46.942Z,3.72
2024-02-02T06:22:49.651Z,4.13
2024-02-02T06:25:52.222Z,2.92
2024-02-02T06:28:54.859Z,3.08
2024-02-02T06:31:58.689Z,2.90
2024-02-02T06:35:01.642Z,1.35
2024-02-02T06:38:04.591Z,2.03
2024-02-02T06:41:08.695Z,5.70
2024-02-02T06:44:11.348Z,1.55
2024-02-02T06:47:13.946Z,2.42
2024-02-02T06:50:16.529Z,2.88
2024-02-02T06:53:19.144Z,2.03
2024-02-02T06:56:38.703Z,3.60
2024-02-02T06:59:44.014Z,6.32
2024-02-02T07:02:47.764Z,4.10
2024-02-02T07:05:50.621Z,3.45
2024-02-02T07:08:54.197Z,3.43
2024-02-02T07:12:37.620Z,5.80
2024-02-02T07:15:44.866Z,2.67
2024-02-02T07:18:47.837Z,3.97
2024-02-02T07:21:50.608Z,3.08
2024-02-02T07:24:53.265Z,6.03
2024-02-02T07:28:00.420Z,6.17
2024-02-02T07:31:03.975Z,3.10
2024-02-02T07:34:38.945Z,3.50
2024-02-02T07:37:48.375Z,2.25
2024-02-02T07:40:59.333Z,3.80
2024-02-02T07:44:02.918Z,4.40
2024-02-02T07:47:05.868Z,3.85
2024-02-02T07:50:08.855Z,5.28
2024-02-02T07:53:12.000Z,2.53
2024-02-02T07:56:27.207Z,3.90
2024-02-02T07:59:30.712Z,3.50
2024-02-02T08:02:33.358Z,2.65
2024-02-02T08:05:40.719Z,3.63
2024-02-02T08:08:43.728Z,5.32
2024-02-02T08:11:46.585Z,5.77
2024-02-02T08:15:01.280Z,6.07
2024-02-02T08:18:04.912Z,6.13
2024-02-02T08:21:08.512Z,3.78
2024-02-02T08:24:12.153Z,2.97
2024-02-02T08:27:16.252Z,6.80
2024-02-02T08:30:19.703Z,4.60
2024-02-02T08:33:24.954Z,7.03
2024-02-02T08:36:27.685Z,5.75
2024-02-02T08:39:34.623Z,5.70
2024-02-02T08:42:37.399Z,4.43
2024-02-02T08:45:42.999Z,6.70
2024-02-02T08:48:49.741Z,4.80
2024-02-02T08:51:55.543Z,3.83
2024-02-02T08:54:58.674Z,5.82
2024-02-02T08:58:25.005Z,6.30
2024-02-02T09:01:43.933Z,5.60
2024-02-02T09:04:58.713Z,4.22
2024-02-02T09:08:33.025Z,8.05
2024-02-02T09:11:36.479Z,5.95
2024-02-02T09:14:39.126Z,5.87
2024-02-02T09:17:42.477Z,6.17
2024-02-02T09:20:46.648Z,4.28
2024-02-02T09:23:50.592Z,1.83
2024-02-02T09:26:53.332Z,3.95
2024-02-02T09:29:56.201Z,2.57
2024-02-02T09:32:59.288Z,5.23
2024-02-02T09:36:04.519Z,3.13
2024-02-02T09:39:27.628Z,4.55
2024-02-02T09:43:02.798Z,5.95
2024-02-02T09:46:22.157Z,2.67
2024-02-02T09:49:30.699Z,4.77
2024-02-02T09:52:54.411Z,3.55
2024-02-02T09:56:09.992Z,3.10
2024-02-02T09:59:42.803Z,5.75
2024-02-02T10:03:01.171Z,5.07
2024-02-02T10:06:22.237Z,3.13
2024-02-02T10:09:46.150Z,4.07
2024-02-02T10:13:18.226Z,7.50
2024-02-02T10:16:44.308Z,2.38
2024-02-02T10:19:46.962Z,3.90
2024-02-02T10:23:01.781Z,6.23
2024-02-02T10:26:22.776Z,3.45
2024-02-02T10:29:54.728Z,5.03
2024-02-02T10:33:23.161Z,3.33
2024-02-02T10:37:04.244Z,2.90
2024-02-02T10:40:10.885Z,3.20
2024-02-02T10:43:30.085Z,2.13
2024-02-02T10:46:54.648Z,2.33
2024-02-02T10:50:06.549Z,1.45
2024-02-02T10:53:17.687Z,2.77
2024-02-02T10:56:39.985Z,1.93
2024-02-02T10:59:58.749Z,2.33
2024-02-02T11:03:12.634Z,2.70
2024-02-02T11:06:24.459Z,4.05
2024-02-02T11:09:35.794Z,4.37
2024-02-02T11:12:47.586Z,5.80
2024-02-02T11:16:02.653Z,2.53
2024-02-02T11:19:11.579Z,3.45
2024-02-02T11:22:40.402Z,2.92
2024-02-02T11:25:54.329Z,4.47
2024-02-02T11:29:09.027Z,3.20
2024-02-02T11:32:50.367Z,2.28
2024-02-02T11:36:05.082Z,3.10
2024-02-02T11:39:30.420Z,8.30
2024-02-02T11:42:37.107Z,2.83
2024-02-02T11:45:41.140Z,4.03
2024-02-02T11:48:55.881Z,3.88
2024-02-02T11:52:08.624Z,3.45
2024-02-02T11:55:36.800Z,4.20
2024-02-02T11:59:13.039Z,4.07
2024-02-02T12:02:44.143Z,3.33
2024-02-02T12:06:07.999Z,1.80
2024-02-02T12:09:18.023Z,4.30
2024-02-02T12:12:37.827Z,2.67
2024-02-02T12:15:41.281Z,2.27
2024-02-02T12:18:45.516Z,2.30
2024-02-02T12:21:48.951Z,2.95
2024-02-02T12:24:52.399Z,3.30
2024-02-02T12:27:55.520Z,3.13
2024-02-02T12:31:17.638Z,5.47
2024-02-02T12:34:20.408Z,2.37
2024-02-02T12:37:23.221Z,2.60
2024-02-02T12:40:26.533Z,3.80
2024-02-02T12:43:30.202Z,3.88
2024-02-02T12:46:44.832Z,4.07
2024-02-02T12:49:52.303Z,3.27
2024-02-02T12:52:56.366Z,2.50
2024-02-02T12:56:00.032Z,4.07
2024-02-02T12:59:06.093Z,2.80
2024-02-02T13:02:08.886Z,1.63
2024-02-02T13:05:18.418Z,1.67
2024-02-02T13:08:31.080Z,6.03
2024-02-02T13:11:37.990Z,3.00
2024-02-02T13:14:41.779Z,3.28
2024-02-02T13:17:45.289Z,3.90
2024-02-02T13:20:50.565Z,3.67
2024-02-02T13:24:00.326Z,1.10
2024-02-02T13:27:06.814Z,1.73
2024-02-02T13:30:14.784Z,3.80
2024-02-02T13:33:21.352Z,2.43
2024-02-02T13:36:24.739Z,3.87
2024-02-02T13:39:28.057Z,2.22
2024-02-02T13:42:36.765Z,3.03
2024-02-02T13:45:44.715Z,3.75
2024-02-02T13:48:48.921Z,2.67
2024-02-02T13:51:52.969Z,2.30
2024-02-02T13:54:55.609Z,2.17
2024-02-02T13:57:58.625Z,2.38
2024-02-02T14:01:15.890Z,4.15
2024-02-02T14:04:30.213Z,2.80
2024-02-02T14:07:32.878Z,5.37
2024-02-02T14:10:46.743Z,4.80
2024-02-02T14:13:50.121Z,4.40
2024-02-02T14:17:02.240Z,3.22
2024-02-02T14:20:06.723Z,3.27
2024-02-02T14:23:13.251Z,1.50
2024-02-02T14:26:15.850Z,4.00
2024-02-02T14:29:19.262Z,4.75
2024-02-02T14:32:21.946Z,3.63
2024-02-02T14:35:24.725Z,1.43
2024-02-02T14:38:27.501Z,3.53
2024-02-02T14:41:30.132Z,1.33
2024-02-02T14:44:33.112Z,2.85
2024-02-02T14:47:35.873Z,2.88
2024-02-02T14:50:40.086Z,1.60
2024-02-02T14:53:42.719Z,6.40
2024-02-02T14:56:45.911Z,18.67
2024-02-02T14:59:52.828Z,24.13
2024-02-02T15:02:55.565Z,32.15
2024-02-02T15:06:00.041Z,35.50
2024-02-02T15:09:14.220Z,44.77
2024-02-02T15:12:19.000Z,18.42
2024-02-02T15:15:21.710Z,13.45
2024-02-02T15:18:24.456Z,9.82
2024-02-02T15:21:27.280Z,6.40
2024-02-02T15:24:31.681Z,5.30
2024-02-02T15:27:38.656Z,2.83
2024-02-02T15:30:44.190Z,2.63
2024-02-02T15:33:47.299Z,6.78
2024-02-02T15:36:50.240Z,6.67
2024-02-02T15:39:57.983Z,2.80
2024-02-02T15:43:00.611Z,4.15
2024-02-02T15:46:03.901Z,6.25
2024-02-02T15:49:07.311Z,3.55
2024-02-02T15:52:10.058Z,2.67
2024-02-02T15:55:13.304Z,5.43
2024-02-02T15:58:16.169Z,3.22
2024-02-02T16:01:19.013Z,3.75
2024-02-02T16:04:23.169Z,7.57
2024-02-02T16:07:25.975Z,8.63
2024-02-02T16:10:30.791Z,9.10
2024-02-02T16:13:33.431Z,4.55
2024-02-02T16:16:36.935Z,4.65
2024-02-02T16:19:40.625Z,2.53
2024-02-02T16:22:43.439Z,3.50
2024-02-02T16:25:46.033Z,6.97
2024-02-02T16:28:49.044Z,4.57
2024-02-02T16:31:51.727Z,5.53
2024-02-02T16:34:54.522Z,7.75
2024-02-02T16:37:57.314Z,4.63
2024-02-02T16:40:59.867Z,4.67
2024-02-02T16:44:02.446Z,6.32
2024-02-02T16:47:05.250Z,8.13
2024-02-02T16:50:08.338Z,9.65
2024-02-02T16:53:10.923Z,8.33
2024-02-02T16:56:19.962Z,9.53
2024-02-02T16:59:26.946Z,9.30
2024-02-02T17:02:30.403Z,8.30
2024-02-02T17:05:32.967Z,11.68
2024-02-02T17:08:35.613Z,9.20
2024-02-02T17:11:40.122Z,5.30
2024-02-02T17:14:48.150Z,7.43
2024-02-02T17:17:51.599Z,6.63
2024-02-02T17:20:54.300Z,7.68
2024-02-02T17:23:57.335Z,8.83
2024-02-02T17:27:17.250Z,11.67
2024-02-02T17:30:32.241Z,10.15
2024-02-02T17:33:35.262Z,12.18
2024-02-02T17:36:38.275Z,13.45
2024-02-02T17:39:41.160Z,9.77
2024-02-02T17:42:45.036Z,7.80
2024-02-02T17:45:48.037Z,9.75
2024-02-02T17:48:55.793Z,8.65
2024-02-02T17:52:03.298Z,10.45
2024-02-02T17:55:12.090Z,10.07
2024-02-02T17:58:26.305Z,7.33
2024-02-02T18:01:29.198Z,8.98
2024-02-02T18:04:31.818Z,11.48
2024-02-02T18:07:44.331Z,12.50
2024-02-02T18:10:50.660Z,13.57
2024-02-02T18:13:53.324Z,13.63
2024-02-02T18:16:55.958Z,11.77
2024-02-02T18:19:59.797Z,12.57
2024-02-02T18:23:02.410Z,14.43
2024-02-02T18:26:08.272Z,12.87
2024-02-02T18:29:11.264Z,10.97
2024-02-02T18:32:24.030Z,10.43
2024-02-02T18:35:27.010Z,14.82
2024-02-02T18:38:30.261Z,10.38
2024-02-02T18:41:33.624Z,10.87
2024-02-02T18:45:04.494Z,12.73
2024-02-02T18:48:09.558Z,10.20
2024-02-02T18:51:20.970Z,11.15
2024-02-02T18:54:32.159Z,10.88
2024-02-02T18:58:11.293Z,11.33
2024-02-02T19:01:33.394Z,11.83
2024-02-02T19:04:49.377Z,9.98
2024-02-02T19:07:54.281Z,15.35
2024-02-02T19:11:02.345Z,11.75
2024-02-02T19:14:16.843Z,10.00
2024-02-02T19:17:24.209Z,8.73
2024-02-02T19:20:27.674Z,11.60
2024-02-02T19:23:33.645Z,11.65
2024-02-02T19:26:36.284Z,10.52
2024-02-02T19:29:38.994Z,12.30
2024-02-02T19:32:41.830Z,13.20
2024-02-02T19:35:44.600Z,9.60
2024-02-02T19:38:47.677Z,12.77
2024-02-02T19:41:50.258Z,9.93
2024-02-02T19:44:52.901Z,9.43
2024-02-02T19:47:57.522Z,10.90
2024-02-02T19:51:00.159Z,11.43
2024-02-02T19:54:02.787Z,12.57
2024-02-02T19:57:05.593Z,9.30
2024-02-02T20:00:14.833Z,9.73
2024-02-02T20:03:18.072Z,8.47
2024-02-02T20:06:21.478Z,11.73
2024-02-02T20:09:24.366Z,10.77
2024-02-02T20:12:27.049Z,10.55
2024-02-02T20:15:30.250Z,12.17
2024-02-02T20:18:33.042Z,14.27
2024-02-02T20:21:35.734Z,11.43
2024-02-02T20:24:42.597Z,10.93
2024-02-02T20:27:45.198Z,9.43
2024-02-02T20:30:48.031Z,10.77
2024-02-02T20:33:53.016Z,11.67
2024-02-02T20:36:55.887Z,11.05
2024-02-02T20:39:58.881Z,15.43
2024-02-02T20:43:01.814Z,12.13
2024-02-02T20:46:04.919Z,14.70
2024-02-02T20:49:07.792Z,13.90
2024-02-02T20:52:17.293Z,13.35
2024-02-02T20:55:20.794Z,14.10
2024-02-02T20:58:23.810Z,15.00
2024-02-02T21:01:26.699Z,10.63
2024-02-02T21:04:29.814Z,11.00
2024-02-02T21:07:33.430Z,9.52
2024-02-02T21:10:36.444Z,10.57
2024-02-02T21:13:39.205Z,12.15
2024-02-02T21:16:42.442Z,12.73
2024-02-02T21:19:45.868Z,10.40
2024-02-02T21:22:48.559Z,11.38
2024-02-02T21:25:51.305Z,14.05
2024-02-02T21:28:53.914Z,11.27
2024-02-02T21:31:56.497Z,14.10
2024-02-02T21:34:59.103Z,10.60
2024-02-02T21:38:01.771Z,13.93
